createdAt,value
2022-11-08T00:00:06.250Z,12.28
2022-11-08T00:02:33.505Z,12.46
2022-11-08T00:05:19.087Z,12.53
2022-11-08T00:08:04.533Z,12.45
2022-11-08T00:10:50.029Z,12.32
2022-11-08T00:13:35.274Z,12.19
2022-11-08T00:16:01.927Z,12.13
2022-11-08T00:18:28.776Z,12.13
2022-11-08T00:20:55.452Z,12.06
2022-11-08T00:23:22.079Z,12.15
2022-11-08T00:25:54.040Z,12.18
2022-11-08T00:28:20.844Z,12.30
2022-11-08T00:30:47.465Z,12.14
2022-11-08T00:33:14.125Z,12.13
2022-11-08T00:35:40.704Z,12.01
2022-11-08T00:38:07.361Z,11.87
2022-11-08T00:40:34.805Z,11.91
2022-11-08T00:43:01.458Z,12.20
2022-11-08T00:45:28.113Z,11.98
2022-11-08T00:47:54.899Z,12.27
2022-11-08T00:50:21.570Z,12.21
2022-11-08T00:52:48.165Z,12.24
2022-11-08T00:55:16.461Z,12.12
2022-11-08T00:58:01.339Z,11.93
2022-11-08T01:00:28.373Z,11.78
2022-11-08T01:03:14.248Z,11.78
2022-11-08T01:05:42.676Z,11.84
2022-11-08T01:08:13.914Z,11.69
2022-11-08T01:10:47.926Z,11.99
2022-11-08T01:13:14.752Z,12.13
2022-11-08T01:15:43.580Z,12.01
2022-11-08T01:18:12.380Z,11.91
2022-11-08T01:20:44.419Z,11.84
2022-11-08T01:23:12.776Z,11.93
2022-11-08T01:25:44.920Z,11.86
2022-11-08T01:28:12.736Z,11.61
2022-11-08T01:30:41.764Z,11.61
2022-11-08T01:33:08.753Z,11.66
2022-11-08T01:35:36.662Z,11.78
2022-11-08T01:38:05.620Z,11.69
2022-11-08T01:40:33.381Z,11.71
2022-11-08T01:42:59.965Z,11.62
2022-11-08T01:46:03.786Z,11.48
2022-11-08T01:48:31.446Z,11.59
2022-11-08T01:51:00.305Z,11.57
2022-11-08T01:53:28.137Z,11.60
2022-11-08T01:58:26.023Z,11.43
2022-11-08T02:00:53.157Z,11.58
2022-11-08T02:03:20.915Z,11.59
2022-11-08T02:05:47.968Z,11.50
2022-11-08T02:08:17.821Z,11.56
2022-11-08T02:10:48.754Z,11.45
2022-11-08T02:13:18.903Z,11.47
2022-11-08T02:15:46.161Z,11.46
2022-11-08T02:18:14.343Z,11.45
2022-11-08T02:20:51.167Z,11.42
2022-11-08T02:23:29.019Z,11.43
2022-11-08T02:25:56.154Z,11.32
2022-11-08T02:28:22.807Z,11.22
2022-11-08T02:30:49.607Z,11.38
2022-11-08T02:33:17.239Z,11.40
2022-11-08T02:35:50.036Z,11.35
2022-11-08T02:38:18.522Z,11.38
2022-11-08T02:40:53.419Z,11.36
2022-11-08T02:43:20.561Z,11.30
2022-11-08T02:45:47.462Z,11.30
2022-11-08T02:48:15.986Z,11.23
2022-11-08T02:50:43.331Z,11.17
2022-11-08T02:53:10.169Z,11.20
2022-11-08T02:55:37.223Z,11.28
2022-11-08T02:58:04.385Z,11.28
2022-11-08T03:00:31.264Z,11.28
2022-11-08T03:02:58.786Z,11.21
2022-11-08T03:05:27.723Z,11.12
2022-11-08T03:07:55.496Z,11.12
2022-11-08T03:10:23.811Z,11.20
2022-11-08T03:12:58.254Z,11.17
2022-11-08T03:15:25.596Z,11.14
2022-11-08T03:17:52.681Z,11.14
2022-11-08T03:20:19.437Z,11.15
2022-11-08T03:22:46.485Z,11.17
2022-11-08T03:25:13.540Z,11.04
2022-11-08T03:27:40.203Z,11.08
2022-11-08T03:30:07.939Z,11.07
2022-11-08T03:32:34.557Z,11.09
2022-11-08T03:35:01.143Z,10.79
2022-11-08T03:37:27.739Z,10.91
2022-11-08T03:39:54.527Z,10.81
2022-11-08T03:42:21.808Z,10.93
2022-11-08T03:44:51.592Z,11.04
2022-11-08T03:47:18.818Z,10.98
2022-11-08T03:49:46.217Z,11.02
2022-11-08T03:52:13.946Z,10.90
2022-11-08T03:54:40.561Z,11.06
2022-11-08T03:57:07.137Z,11.01
2022-11-08T03:59:33.762Z,11.03
2022-11-08T04:02:00.504Z,11.00
2022-11-08T04:04:27.224Z,10.69
2022-11-08T04:06:53.864Z,10.48
2022-11-08T04:09:21.800Z,11.08
2022-11-08T04:12:07.128Z,11.09
2022-11-08T04:14:52.362Z,10.99
2022-11-08T04:17:18.993Z,11.06
2022-11-08T04:20:04.354Z,11.04
2022-11-08T04:22:30.993Z,10.86
2022-11-08T04:24:57.596Z,10.98
2022-11-08T04:27:24.185Z,11.07
2022-11-08T04:29:51.066Z,10.87
2022-11-08T04:32:17.724Z,10.81
2022-11-08T04:34:44.293Z,11.09
2022-11-08T04:37:10.848Z,11.02
2022-11-08T04:39:37.445Z,10.97
2022-11-08T04:42:04.204Z,10.81
2022-11-08T04:44:30.848Z,10.97
2022-11-08T04:46:57.512Z,10.77
2022-11-08T04:49:24.129Z,10.88
2022-11-08T04:51:50.808Z,10.83
2022-11-08T04:54:17.499Z,10.76
2022-11-08T04:56:44.072Z,10.75
2022-11-08T04:59:12.087Z,10.62
2022-11-08T05:01:39.307Z,10.72
2022-11-08T05:04:06.088Z,10.65
2022-11-08T05:06:32.887Z,10.40
2022-11-08T05:09:00.325Z,10.62
2022-11-08T05:11:29.733Z,10.72
2022-11-08T05:13:56.667Z,10.46
2022-11-08T05:16:26.247Z,10.47
2022-11-08T05:18:53.221Z,10.56
2022-11-08T05:21:40.219Z,10.71
2022-11-08T05:24:09.824Z,10.89
2022-11-08T05:26:39.963Z,10.76
2022-11-08T05:29:06.566Z,10.56
2022-11-08T05:31:33.305Z,10.89
2022-11-08T05:34:00.761Z,10.75
2022-11-08T05:36:28.627Z,10.57
2022-11-08T05:38:55.910Z,10.47
2022-11-08T05:41:24.007Z,10.52
2022-11-08T05:43:52.449Z,10.60
2022-11-08T05:46:20.698Z,10.50
2022-11-08T05:48:48.511Z,10.97
2022-11-08T05:51:17.489Z,10.80
2022-11-08T05:53:44.183Z,10.59
2022-11-08T05:56:11.529Z,10.69
2022-11-08T05:58:38.261Z,10.69
2022-11-08T06:01:07.269Z,10.68
2022-11-08T06:03:34.142Z,10.57
2022-11-08T06:06:09.618Z,10.65
2022-11-08T06:08:37.267Z,10.49
2022-11-08T06:11:13.114Z,10.51
2022-11-08T06:13:40.677Z,10.81
2022-11-08T06:16:10.405Z,10.70
2022-11-08T06:18:37.861Z,10.82
2022-11-08T06:21:06.530Z,10.77
2022-11-08T06:23:33.678Z,10.70
2022-11-08T06:26:00.767Z,10.68
2022-11-08T06:28:27.576Z,10.61
2022-11-08T06:30:54.565Z,10.59
2022-11-08T06:33:21.828Z,10.47
2022-11-08T06:35:48.887Z,10.38
2022-11-08T06:38:15.537Z,10.38
2022-11-08T06:40:42.625Z,10.39
2022-11-08T06:43:16.354Z,10.58
2022-11-08T06:45:46.040Z,10.56
2022-11-08T06:48:12.639Z,10.36
2022-11-08T06:50:39.350Z,10.43
2022-11-08T06:53:08.608Z,10.50
2022-11-08T06:55:35.860Z,10.43
2022-11-08T06:58:03.348Z,10.64
2022-11-08T07:00:30.350Z,10.76
2022-11-08T07:03:00.080Z,10.66
2022-11-08T07:05:27.940Z,10.80
2022-11-08T07:07:56.745Z,11.00
2022-11-08T07:10:25.739Z,10.89
2022-11-08T07:13:02.428Z,10.80
2022-11-08T07:15:29.850Z,10.91
2022-11-08T07:18:04.302Z,10.87
2022-11-08T07:20:31.179Z,10.94
2022-11-08T07:22:58.297Z,10.89
2022-11-08T07:25:26.201Z,10.96
2022-11-08T07:27:57.300Z,11.34
2022-11-08T07:30:24.315Z,11.08
2022-11-08T07:32:51.574Z,11.10
2022-11-08T07:35:18.712Z,11.39
2022-11-08T07:37:45.318Z,11.21
2022-11-08T07:40:12.533Z,11.34
2022-11-08T07:43:09.671Z,11.31
2022-11-08T07:45:27.477Z,11.38
2022-11-08T07:48:09.520Z,11.23
2022-11-08T07:50:38.141Z,11.07
2022-11-08T07:53:28.539Z,11.29
2022-11-08T07:55:59.114Z,11.52
2022-11-08T07:58:59.849Z,11.57
2022-11-08T08:01:52.026Z,11.29
2022-11-08T08:04:24.037Z,11.39
2022-11-08T08:06:52.781Z,11.31
2022-11-08T08:09:29.724Z,11.54
2022-11-08T08:11:58.338Z,11.74
2022-11-08T08:14:45.986Z,11.72
2022-11-08T08:17:13.526Z,11.72
2022-11-08T08:19:40.121Z,11.64
2022-11-08T08:22:10.858Z,11.64
2022-11-08T08:24:50.773Z,11.58
2022-11-08T08:27:17.409Z,11.48
2022-11-08T08:29:47.247Z,11.59
2022-11-08T08:32:14.700Z,11.44
2022-11-08T08:35:13.422Z,11.55
2022-11-08T08:38:01.834Z,11.55
2022-11-08T08:40:29.245Z,11.58
2022-11-08T08:43:17.129Z,11.61
2022-11-08T08:45:47.068Z,11.62
2022-11-08T08:48:35.836Z,11.71
2022-11-08T08:51:07.755Z,11.87
2022-11-08T08:53:34.812Z,12.33
2022-11-08T08:56:06.823Z,12.58
2022-11-08T08:58:34.638Z,12.79
2022-11-08T09:04:28.137Z,12.51
2022-11-08T09:07:12.001Z,12.42
2022-11-08T09:09:43.905Z,12.19
2022-11-08T09:12:14.390Z,12.20
2022-11-08T09:14:41.414Z,12.61
2022-11-08T09:17:08.013Z,12.74
2022-11-08T09:19:34.712Z,12.72
2022-11-08T09:22:01.621Z,12.59
2022-11-08T09:24:28.352Z,12.70
2022-11-08T09:26:55.013Z,12.89
2022-11-08T09:29:21.722Z,13.12
2022-11-08T09:31:49.764Z,13.12
2022-11-08T09:34:19.222Z,13.20
2022-11-08T09:36:51.583Z,13.48
2022-11-08T09:39:18.557Z,13.64
2022-11-08T09:42:06.531Z,13.68
2022-11-08T09:44:41.755Z,13.79
2022-11-08T09:47:20.659Z,14.00
2022-11-08T09:49:58.293Z,14.01
2022-11-08T09:52:27.237Z,13.94
2022-11-08T09:55:01.765Z,14.00
2022-11-08T09:57:38.849Z,14.17
2022-11-08T10:00:07.446Z,14.32
2022-11-08T10:02:36.320Z,14.38
2022-11-08T10:05:09.407Z,14.57
2022-11-08T10:07:45.977Z,14.64
2022-11-08T10:10:36.008Z,14.49
2022-11-08T10:13:28.922Z,14.58
2022-11-08T10:16:11.112Z,15.27
2022-11-08T10:19:22.540Z,16.09
2022-11-08T10:21:58.421Z,15.44
2022-11-08T10:24:35.743Z,14.84
2022-11-08T10:27:10.491Z,14.42
2022-11-08T10:29:43.168Z,14.29
2022-11-08T10:32:18.298Z,14.30
2022-11-08T10:34:56.354Z,14.38
2022-11-08T10:37:24.899Z,14.70
2022-11-08T10:39:56.826Z,14.69
2022-11-08T10:42:50.362Z,14.58
2022-11-08T10:45:17.127Z,14.58
2022-11-08T10:47:46.100Z,14.66
2022-11-08T10:50:20.765Z,14.75
2022-11-08T10:53:02.685Z,14.62
2022-11-08T10:55:48.761Z,14.61
2022-11-08T10:58:41.750Z,14.67
2022-11-08T11:01:20.344Z,14.68
2022-11-08T11:03:50.733Z,14.80
2022-11-08T11:06:34.506Z,14.95
2022-11-08T11:09:18.232Z,14.80
2022-11-08T11:11:53.594Z,14.77
2022-11-08T11:14:23.536Z,14.83
2022-11-08T11:17:14.295Z,14.86
2022-11-08T11:19:53.983Z,15.09
2022-11-08T11:22:33.683Z,15.03
2022-11-08T11:25:15.611Z,15.16
2022-11-08T11:27:45.320Z,14.90
2022-11-08T11:30:18.147Z,14.96
2022-11-08T11:33:00.456Z,14.91
2022-11-08T11:35:45.413Z,14.96
2022-11-08T11:38:28.097Z,14.93
2022-11-08T11:41:00.980Z,14.87
2022-11-08T11:43:37.445Z,14.85
2022-11-08T11:46:41.639Z,14.79
2022-11-08T11:49:17.539Z,14.76
2022-11-08T11:51:46.899Z,14.94
2022-11-08T11:54:17.096Z,14.93
2022-11-08T11:57:09.672Z,14.97
2022-11-08T12:00:14.478Z,14.97
2022-11-08T12:03:04.693Z,14.85
2022-11-08T12:05:52.627Z,14.93
2022-11-08T12:08:40.846Z,14.85
2022-11-08T12:11:35.556Z,14.95
2022-11-08T12:14:30.539Z,15.03
2022-11-08T12:17:05.415Z,14.95
2022-11-08T12:20:09.140Z,14.85
2022-11-08T12:22:57.348Z,14.82
2022-11-08T12:25:28.308Z,15.05
2022-11-08T12:28:32.551Z,15.22
2022-11-08T12:31:24.009Z,15.04
2022-11-08T12:34:07.485Z,15.02
2022-11-08T12:36:46.277Z,15.12
2022-11-08T12:39:32.326Z,15.14
2022-11-08T12:42:21.815Z,15.30
2022-11-08T12:45:08.378Z,15.08
2022-11-08T12:47:44.149Z,15.12
2022-11-08T12:50:27.883Z,15.29
2022-11-08T12:53:22.082Z,15.22
2022-11-08T12:55:51.913Z,15.14
2022-11-08T12:58:46.495Z,15.20
2022-11-08T13:01:17.019Z,15.27
2022-11-08T13:04:00.601Z,15.26
2022-11-08T13:06:58.058Z,15.34
2022-11-08T13:09:40.280Z,15.23
2022-11-08T13:12:49.837Z,15.40
2022-11-08T13:15:21.747Z,15.29
2022-11-08T13:18:06.955Z,15.50
2022-11-08T13:20:43.079Z,15.52
2022-11-08T13:23:33.105Z,15.59
2022-11-08T13:26:24.335Z,15.76
2022-11-08T13:28:51.938Z,15.78
2022-11-08T13:31:50.773Z,15.67
2022-11-08T13:34:26.485Z,15.60
2022-11-08T13:37:06.086Z,15.65
2022-11-08T13:39:57.002Z,15.50
2022-11-08T13:42:23.539Z,15.65
2022-11-08T13:44:59.257Z,15.84
2022-11-08T13:47:32.657Z,15.69
2022-11-08T13:50:27.201Z,15.63
2022-11-08T13:53:18.951Z,15.78
2022-11-08T13:56:09.536Z,15.53
2022-11-08T13:58:45.035Z,15.64
2022-11-08T14:01:22.209Z,15.60
2022-11-08T14:03:52.600Z,15.77
2022-11-08T14:06:52.001Z,15.78
2022-11-08T14:09:56.605Z,15.73
2022-11-08T14:12:37.889Z,15.89
2022-11-08T14:15:33.548Z,15.95
2022-11-08T14:18:04.983Z,15.99
2022-11-08T14:20:36.831Z,15.92
2022-11-08T14:23:23.856Z,16.08
2022-11-08T14:25:55.582Z,16.07
2022-11-08T14:28:26.726Z,16.01
2022-11-08T14:30:53.811Z,16.12
2022-11-08T14:33:23.325Z,16.09
2022-11-08T14:36:16.378Z,15.97
2022-11-08T14:38:50.339Z,16.11
2022-11-08T14:41:24.769Z,16.08
2022-11-08T14:43:53.255Z,15.90
2022-11-08T14:46:29.466Z,15.87
2022-11-08T14:48:57.283Z,15.76
2022-11-08T14:51:25.967Z,15.87
2022-11-08T14:53:54.726Z,15.69
2022-11-08T14:56:27.772Z,15.56
2022-11-08T14:58:58.583Z,15.73
2022-11-08T15:01:33.174Z,15.52
2022-11-08T15:04:41.635Z,15.68
2022-11-08T15:07:19.279Z,15.50
2022-11-08T15:09:50.063Z,15.49
2022-11-08T15:12:21.950Z,15.38
2022-11-08T15:15:02.063Z,15.39
2022-11-08T15:17:39.384Z,15.63
2022-11-08T15:20:10.956Z,15.49
2022-11-08T15:22:37.651Z,15.42
2022-11-08T15:25:28.447Z,15.48
2022-11-08T15:28:22.963Z,15.53
2022-11-08T15:30:59.219Z,15.27
2022-11-08T15:33:36.639Z,15.15
2022-11-08T15:36:12.196Z,15.20
2022-11-08T15:38:49.147Z,15.13
2022-11-08T15:41:31.104Z,15.56
2022-11-08T15:44:14.880Z,15.33
2022-11-08T15:46:41.896Z,15.00
2022-11-08T15:49:17.767Z,15.33
2022-11-08T15:51:44.528Z,15.36
2022-11-08T15:54:11.171Z,15.17
2022-11-08T15:56:41.209Z,15.03
2022-11-08T15:59:22.336Z,15.00
2022-11-08T16:02:02.787Z,15.32
2022-11-08T16:04:33.021Z,15.29
2022-11-08T16:07:03.954Z,15.04
2022-11-08T16:09:33.966Z,14.90
2022-11-08T16:12:03.120Z,14.91
2022-11-08T16:14:31.017Z,14.82
2022-11-08T16:17:10.048Z,14.68
2022-11-08T16:19:37.129Z,14.87
2022-11-08T16:22:07.587Z,15.07
2022-11-08T16:24:34.465Z,14.80
2022-11-08T16:27:02.742Z,14.77
2022-11-08T16:29:29.579Z,14.80
2022-11-08T16:31:56.292Z,14.69
2022-11-08T16:34:23.222Z,14.69
2022-11-08T16:36:50.194Z,14.88
2022-11-08T16:39:21.168Z,14.76
2022-11-08T16:41:47.825Z,15.02
2022-11-08T16:44:14.840Z,15.20
2022-11-08T16:46:41.530Z,15.15
2022-11-08T16:49:19.173Z,14.89
2022-11-08T16:51:45.881Z,14.92
2022-11-08T16:54:18.251Z,14.62
2022-11-08T16:56:45.397Z,14.64
2022-11-08T16:59:12.071Z,14.60
2022-11-08T17:01:39.865Z,14.99
2022-11-08T17:04:06.592Z,14.85
2022-11-08T17:06:33.585Z,15.00
2022-11-08T17:09:04.012Z,15.03
2022-11-08T17:11:38.093Z,14.95
2022-11-08T17:14:05.362Z,14.79
2022-11-08T17:16:35.937Z,14.96
2022-11-08T17:19:10.151Z,14.83
2022-11-08T17:21:45.800Z,14.81
2022-11-08T17:24:21.264Z,14.82
2022-11-08T17:26:53.557Z,14.72
2022-11-08T17:29:21.197Z,14.81
2022-11-08T17:31:48.424Z,14.99
2022-11-08T17:34:16.611Z,14.87
2022-11-08T17:36:43.405Z,14.81
2022-11-08T17:39:14.996Z,14.86
2022-11-08T17:41:42.258Z,15.05
2022-11-08T17:44:09.245Z,14.97
2022-11-08T17:46:37.041Z,14.93
2022-11-08T17:49:05.077Z,14.96
2022-11-08T17:51:32.707Z,15.14
2022-11-08T17:53:59.981Z,15.19
2022-11-08T17:56:27.285Z,15.07
2022-11-08T17:58:54.159Z,14.85
2022-11-08T18:01:21.244Z,15.24
2022-11-08T18:03:48.215Z,15.08
2022-11-08T18:06:19.286Z,14.97
2022-11-08T18:08:46.101Z,15.03
2022-11-08T18:11:12.792Z,15.25
2022-11-08T18:13:39.518Z,15.31
2022-11-08T18:16:17.794Z,15.22
2022-11-08T18:18:46.293Z,15.13
2022-11-08T18:21:14.400Z,14.99
2022-11-08T18:23:43.247Z,14.99
2022-11-08T18:26:10.623Z,15.26
2022-11-08T18:28:38.884Z,15.17
2022-11-08T18:31:08.132Z,14.97
2022-11-08T18:33:35.896Z,15.07
2022-11-08T18:36:07.866Z,14.93
2022-11-08T18:38:41.963Z,14.95
2022-11-08T18:41:08.846Z,14.97
2022-11-08T18:43:35.501Z,15.06
2022-11-08T18:46:04.571Z,14.94
2022-11-08T18:48:35.445Z,14.90
2022-11-08T18:51:03.628Z,14.67
2022-11-08T18:53:30.473Z,14.56
2022-11-08T18:55:57.793Z,14.68
2022-11-08T18:58:25.028Z,14.81
2022-11-08T19:00:53.663Z,14.64
2022-11-08T19:03:22.639Z,14.70
2022-11-08T19:05:51.428Z,14.88
2022-11-08T19:08:21.467Z,14.70
2022-11-08T19:10:56.361Z,14.81
2022-11-08T19:13:29.106Z,14.91
2022-11-08T19:16:07.210Z,14.93
2022-11-08T19:18:35.981Z,15.03
2022-11-08T19:21:07.048Z,14.88
2022-11-08T19:23:35.355Z,14.92
2022-11-08T19:26:05.155Z,14.81
2022-11-08T19:28:34.238Z,14.91
2022-11-08T19:31:01.225Z,14.88
2022-11-08T19:33:29.442Z,15.15
2022-11-08T19:36:01.022Z,15.03
2022-11-08T19:38:27.806Z,14.93
2022-11-08T19:40:54.938Z,14.80
2022-11-08T19:43:21.706Z,14.85
2022-11-08T19:45:53.027Z,14.71
2022-11-08T19:48:20.645Z,14.72
2022-11-08T19:50:48.025Z,14.91
2022-11-08T19:53:14.839Z,14.73
2022-11-08T19:55:41.610Z,14.64
2022-11-08T19:58:08.394Z,14.59
2022-11-08T20:00:36.706Z,14.57
2022-11-08T20:03:06.935Z,14.52
2022-11-08T20:05:33.788Z,14.60
2022-11-08T20:08:04.786Z,14.67
2022-11-08T20:10:31.570Z,14.65
2022-11-08T20:12:58.260Z,14.60
2022-11-08T20:15:25.055Z,14.52
2022-11-08T20:17:51.825Z,14.27
2022-11-08T20:20:19.280Z,14.29
2022-11-08T20:22:48.181Z,14.37
2022-11-08T20:25:15.156Z,14.23
2022-11-08T20:27:42.249Z,14.56
2022-11-08T20:30:09.917Z,14.41
2022-11-08T20:32:36.581Z,14.32
2022-11-08T20:35:04.346Z,14.24
2022-11-08T20:37:31.321Z,14.24
2022-11-08T20:39:57.917Z,14.42
2022-11-08T20:42:24.577Z,14.29
2022-11-08T20:44:53.233Z,14.36
2022-11-08T20:47:20.452Z,14.57
2022-11-08T20:49:47.325Z,14.57
2022-11-08T20:52:16.603Z,14.84
2022-11-08T20:54:44.202Z,14.57
2022-11-08T20:57:11.054Z,14.34
2022-11-08T20:59:37.698Z,14.35
2022-11-08T21:02:05.053Z,14.43
2022-11-08T21:04:31.853Z,14.41
2022-11-08T21:07:56.029Z,14.58
2022-11-08T21:09:50.344Z,14.46
2022-11-08T21:12:17.882Z,14.45
2022-11-08T21:14:44.594Z,14.40
2022-11-08T21:17:26.931Z,14.49
2022-11-08T21:19:54.014Z,14.68
2022-11-08T21:22:20.825Z,14.69
2022-11-08T21:24:48.313Z,14.65
2022-11-08T21:27:15.752Z,14.52
2022-11-08T21:29:42.918Z,14.46
2022-11-08T21:32:09.549Z,14.61
2022-11-08T21:34:36.546Z,14.29
2022-11-08T21:37:03.221Z,14.36
2022-11-08T21:39:30.115Z,14.19
2022-11-08T21:41:56.801Z,14.29
2022-11-08T21:44:23.440Z,14.84
2022-11-08T21:46:50.133Z,14.61
2022-11-08T21:49:16.960Z,14.35
2022-11-08T21:51:43.679Z,14.35
2022-11-08T21:54:10.316Z,14.25
2022-11-08T21:56:38.143Z,14.15
2022-11-08T21:59:11.649Z,14.42
2022-11-08T22:01:40.294Z,14.39
2022-11-08T22:04:08.679Z,14.26
2022-11-08T22:06:36.226Z,14.29
2022-11-08T22:09:03.449Z,14.32
2022-11-08T22:11:35.955Z,14.15
2022-11-08T22:14:03.884Z,14.14
2022-11-08T22:16:30.711Z,14.30
2022-11-08T22:19:04.783Z,14.33
2022-11-08T22:21:40.407Z,14.27
2022-11-08T22:24:13.625Z,14.18
2022-11-08T22:26:41.618Z,14.22
2022-11-08T22:29:11.676Z,14.19
2022-11-08T22:31:38.868Z,14.18
2022-11-08T22:34:08.358Z,14.19
2022-11-08T22:36:41.447Z,14.40
2022-11-08T22:39:17.995Z,14.49
2022-11-08T22:41:46.973Z,14.38
2022-11-08T22:44:17.933Z,14.17
2022-11-08T22:46:51.514Z,14.08
2022-11-08T22:49:23.108Z,14.23
2022-11-08T22:51:49.918Z,14.08
2022-11-08T22:54:20.450Z,14.08
2022-11-08T22:56:51.819Z,14.22
2022-11-08T22:59:18.627Z,14.21
2022-11-08T23:01:45.824Z,14.22
2022-11-08T23:04:14.117Z,14.12
2022-11-08T23:06:49.667Z,14.08
2022-11-08T23:09:16.590Z,14.02
2022-11-08T23:12:02.707Z,14.03
2022-11-08T23:14:48.606Z,14.05
2022-11-08T23:17:16.874Z,14.15
2022-11-08T23:20:02.131Z,14.22
2022-11-08T23:22:48.599Z,14.20
2022-11-08T23:25:15.414Z,14.24
2022-11-08T23:28:00.695Z,14.11
2022-11-08T23:30:46.014Z,14.25
2022-11-08T23:33:12.692Z,14.43
2022-11-08T23:35:59.352Z,14.21
2022-11-08T23:38:25.955Z,14.27
2022-11-08T23:41:10.939Z,14.29
2022-11-08T23:43:56.140Z,14.52
2022-11-08T23:46:22.810Z,14.26
2022-11-08T23:48:49.516Z,14.34
2022-11-08T23:51:16.141Z,14.16
2022-11-08T23:53:43.859Z,14.52
2022-11-08T23:56:13.085Z,14.64
2022-11-08T23:58:39.660Z,14.57
